createdAt,value
2022-11-09T00:00:07.089Z,73.51
2022-11-09T00:00:19.582Z,73.69
2022-11-09T00:00:31.511Z,73.74
2022-11-09T00:00:44.296Z,73.45
2022-11-09T00:01:01.298Z,73.43
2022-11-09T00:01:13.225Z,73.66
2022-11-09T00:01:27.351Z,73.67
2022-11-09T00:01:39.546Z,73.62
2022-11-09T00:01:51.546Z,73.74
2022-11-09T00:02:05.376Z,73.71
2022-11-09T00:02:17.284Z,73.84
2022-11-09T00:02:29.203Z,74.06
2022-11-09T00:02:43.975Z,74.15
2022-11-09T00:02:56.043Z,73.88
2022-11-09T00:03:08.092Z,73.69
2022-11-09T00:03:20.345Z,73.97
2022-11-09T00:03:32.627Z,74.13
2022-11-09T00:03:44.765Z,74.06
2022-11-09T00:04:01.946Z,73.93
2022-11-09T00:04:13.888Z,74.07
2022-11-09T00:04:25.812Z,73.67
2022-11-09T00:04:37.713Z,73.87
2022-11-09T00:04:49.686Z,73.75
2022-11-09T00:05:01.638Z,74.18
2022-11-09T00:05:13.555Z,74.08
2022-11-09T00:05:25.456Z,74.25
2022-11-09T00:05:37.964Z,74.08
2022-11-09T00:05:57.086Z,74.73
2022-11-09T00:06:09.215Z,74.21
2022-11-09T00:06:21.160Z,74.21
2022-11-09T00:06:34.003Z,74.08
2022-11-09T00:06:46.013Z,74.44
2022-11-09T00:06:58.052Z,74.22
2022-11-09T00:07:10.130Z,74.19
2022-11-09T00:07:22.201Z,74.37
2022-11-09T00:07:34.132Z,74.29
2022-11-09T00:07:46.086Z,74.26
2022-11-09T00:07:57.993Z,74.25
2022-11-09T00:08:11.446Z,74.38
2022-11-09T00:08:23.439Z,74.32
2022-11-09T00:08:37.691Z,74.23
2022-11-09T00:08:49.696Z,74.71
2022-11-09T00:09:07.431Z,74.82
2022-11-09T00:09:19.922Z,74.46
2022-11-09T00:09:31.934Z,74.80
2022-11-09T00:09:43.923Z,74.71
2022-11-09T00:09:55.922Z,75.11
2022-11-09T00:10:08.242Z,75.08
2022-11-09T00:10:20.267Z,75.24
2022-11-09T00:10:33.102Z,75.13
2022-11-09T00:10:45.037Z,75.00
2022-11-09T00:11:03.751Z,75.21
2022-11-09T00:11:16.069Z,74.92
2022-11-09T00:11:28.053Z,74.81
2022-11-09T00:11:39.958Z,75.10
2022-11-09T00:11:53.870Z,75.02
2022-11-09T00:12:07.402Z,75.22
2022-11-09T00:12:19.347Z,75.23
2022-11-09T00:12:31.263Z,75.31
2022-11-09T00:12:43.168Z,75.40
2022-11-09T00:12:55.067Z,74.85
2022-11-09T00:13:07.001Z,75.21
2022-11-09T00:13:19.234Z,74.89
2022-11-09T00:13:31.808Z,74.94
2022-11-09T00:13:44.952Z,75.04
2022-11-09T00:13:56.924Z,75.15
2022-11-09T00:14:14.288Z,75.30
2022-11-09T00:14:26.214Z,75.25
2022-11-09T00:14:38.745Z,75.09
2022-11-09T00:14:50.674Z,75.20
2022-11-09T00:15:02.613Z,75.19
2022-11-09T00:15:14.548Z,75.07
2022-11-09T00:15:26.462Z,75.09
2022-11-09T00:15:38.366Z,74.94
2022-11-09T00:15:50.399Z,74.97
2022-11-09T00:16:02.363Z,75.08
2022-11-09T00:16:16.760Z,74.67
2022-11-09T00:16:28.873Z,75.01
2022-11-09T00:16:40.882Z,74.87
2022-11-09T00:16:52.820Z,75.17
2022-11-09T00:17:04.910Z,75.00
2022-11-09T00:17:16.855Z,74.81
2022-11-09T00:17:28.773Z,74.45
2022-11-09T00:17:40.678Z,74.97
2022-11-09T00:17:52.592Z,74.99
2022-11-09T00:18:04.554Z,74.75
2022-11-09T00:18:16.472Z,74.78
2022-11-09T00:18:29.631Z,74.42
2022-11-09T00:18:47.253Z,74.48
2022-11-09T00:18:59.329Z,74.41
2022-11-09T00:19:13.197Z,74.33
2022-11-09T00:19:25.160Z,74.59
2022-11-09T00:19:37.157Z,74.15
2022-11-09T00:19:49.048Z,74.47
2022-11-09T00:20:00.967Z,74.26
2022-11-09T00:20:12.949Z,74.29
2022-11-09T00:20:24.859Z,74.34
2022-11-09T00:20:36.780Z,74.91
2022-11-09T00:20:48.831Z,74.86
2022-11-09T00:21:08.839Z,74.99
2022-11-09T00:21:23.215Z,75.15
2022-11-09T00:21:35.239Z,75.46
2022-11-09T00:21:47.222Z,75.48
2022-11-09T00:21:59.147Z,75.99
2022-11-09T00:22:11.144Z,75.74
2022-11-09T00:22:23.068Z,76.00
2022-11-09T00:22:35.008Z,75.92
2022-11-09T00:22:50.275Z,76.40
2022-11-09T00:23:02.213Z,75.74
2022-11-09T00:23:14.233Z,75.95
2022-11-09T00:23:26.156Z,76.10
2022-11-09T00:23:38.355Z,76.20
2022-11-09T00:23:51.092Z,76.55
2022-11-09T00:24:03.135Z,76.53
2022-11-09T00:24:15.257Z,76.49
2022-11-09T00:24:27.144Z,76.53
2022-11-09T00:24:39.080Z,76.42
2022-11-09T00:24:51.019Z,76.45
2022-11-09T00:25:02.942Z,76.57
2022-11-09T00:25:15.296Z,76.68
2022-11-09T00:25:27.251Z,76.59
2022-11-09T00:25:39.177Z,76.91
2022-11-09T00:25:51.152Z,77.07
2022-11-09T00:26:05.066Z,76.97
2022-11-09T00:26:18.588Z,76.71
2022-11-09T00:26:30.510Z,77.10
2022-11-09T00:26:42.818Z,77.48
2022-11-09T00:26:54.764Z,77.51
2022-11-09T00:27:06.679Z,77.28
2022-11-09T00:27:18.588Z,77.40
2022-11-09T00:27:30.503Z,77.65
2022-11-09T00:27:42.506Z,77.31
2022-11-09T00:27:54.439Z,77.25
2022-11-09T00:28:06.427Z,77.06
2022-11-09T00:28:18.355Z,77.31
2022-11-09T00:28:30.347Z,77.00
2022-11-09T00:28:42.294Z,76.88
2022-11-09T00:28:54.308Z,76.90
2022-11-09T00:29:06.411Z,76.52
2022-11-09T00:29:18.353Z,76.66
2022-11-09T00:29:30.334Z,76.59
2022-11-09T00:29:42.337Z,76.73
2022-11-09T00:29:54.255Z,76.85
2022-11-09T00:30:07.023Z,76.58
2022-11-09T00:30:19.033Z,76.86
2022-11-09T00:30:31.425Z,77.04
2022-11-09T00:30:43.437Z,77.43
2022-11-09T00:31:05.841Z,77.95
2022-11-09T00:31:20.571Z,77.66
2022-11-09T00:31:32.562Z,77.70
2022-11-09T00:31:44.484Z,77.29
2022-11-09T00:31:56.393Z,77.78
2022-11-09T00:32:08.312Z,77.74
2022-11-09T00:32:25.220Z,77.40
2022-11-09T00:32:39.636Z,77.63
2022-11-09T00:32:51.567Z,77.65
2022-11-09T00:33:03.555Z,77.87
2022-11-09T00:33:15.528Z,78.04
2022-11-09T00:33:27.692Z,77.77
2022-11-09T00:33:39.685Z,77.84
2022-11-09T00:33:54.203Z,77.37
2022-11-09T00:34:06.106Z,77.60
2022-11-09T00:34:18.029Z,77.54
2022-11-09T00:34:29.936Z,77.24
2022-11-09T00:34:41.937Z,77.07
2022-11-09T00:34:53.845Z,77.25
2022-11-09T00:35:06.168Z,76.86
2022-11-09T00:35:18.064Z,77.07
2022-11-09T00:35:30.040Z,77.03
2022-11-09T00:35:41.958Z,76.53
2022-11-09T00:35:54.786Z,75.94
2022-11-09T00:36:10.302Z,76.24
2022-11-09T00:36:24.250Z,75.89
2022-11-09T00:36:36.185Z,75.91
2022-11-09T00:36:48.100Z,75.48
2022-11-09T00:36:59.986Z,75.46
2022-11-09T00:37:11.957Z,75.58
2022-11-09T00:37:24.156Z,75.37
2022-11-09T00:37:36.209Z,75.53
2022-11-09T00:37:48.222Z,75.41
2022-11-09T00:38:00.276Z,75.62
2022-11-09T00:38:12.235Z,75.37
2022-11-09T00:38:24.243Z,75.37
2022-11-09T00:38:37.382Z,75.38
2022-11-09T00:38:52.482Z,75.18
2022-11-09T00:39:04.535Z,75.52
2022-11-09T00:39:16.537Z,75.27
2022-11-09T00:39:28.452Z,75.02
2022-11-09T00:39:40.354Z,75.14
2022-11-09T00:39:52.245Z,75.46
2022-11-09T00:40:04.528Z,75.42
2022-11-09T00:40:16.642Z,75.22
2022-11-09T00:40:28.546Z,75.27
2022-11-09T00:40:40.471Z,75.06
2022-11-09T00:40:52.462Z,75.15
2022-11-09T00:41:05.594Z,75.27
2022-11-09T00:41:17.789Z,75.27
2022-11-09T00:41:29.693Z,75.29
2022-11-09T00:41:41.656Z,75.18
2022-11-09T00:41:53.581Z,75.19
2022-11-09T00:42:07.231Z,75.20
2022-11-09T00:42:19.144Z,74.97
2022-11-09T00:42:31.069Z,74.88
2022-11-09T00:42:42.986Z,74.81
2022-11-09T00:42:54.901Z,74.58
2022-11-09T00:43:06.804Z,74.57
2022-11-09T00:43:19.192Z,74.46
2022-11-09T00:43:31.322Z,74.58
2022-11-09T00:43:43.215Z,74.74
2022-11-09T00:43:55.354Z,74.57
2022-11-09T00:44:07.541Z,74.40
2022-11-09T00:44:19.556Z,74.47
2022-11-09T00:44:31.539Z,74.50
2022-11-09T00:44:43.435Z,74.60
2022-11-09T00:44:55.396Z,74.39
2022-11-09T00:45:07.808Z,74.47
2022-11-09T00:45:20.300Z,74.25
2022-11-09T00:45:32.247Z,74.46
2022-11-09T00:45:44.215Z,74.68
2022-11-09T00:45:56.203Z,74.42
2022-11-09T00:46:08.730Z,74.59
2022-11-09T00:46:21.006Z,74.78
2022-11-09T00:46:33.290Z,74.66
2022-11-09T00:46:45.474Z,74.53
2022-11-09T00:46:57.407Z,74.57
2022-11-09T00:47:09.321Z,74.35
2022-11-09T00:47:21.227Z,74.25
2022-11-09T00:47:33.204Z,74.05
2022-11-09T00:47:45.096Z,74.29
2022-11-09T00:47:57.012Z,74.17
2022-11-09T00:48:09.207Z,74.16
2022-11-09T00:48:21.503Z,74.23
2022-11-09T00:48:34.067Z,74.26
2022-11-09T00:48:46.504Z,74.41
2022-11-09T00:48:58.499Z,74.26
2022-11-09T00:49:10.391Z,74.53
2022-11-09T00:49:22.338Z,74.45
2022-11-09T00:49:34.355Z,74.82
2022-11-09T00:49:46.292Z,74.46
2022-11-09T00:49:58.225Z,74.73
2022-11-09T00:50:10.293Z,74.65
2022-11-09T00:50:22.186Z,74.81
2022-11-09T00:50:34.163Z,74.39
2022-11-09T00:50:53.096Z,74.68
2022-11-09T00:51:05.630Z,74.94
2022-11-09T00:51:18.484Z,74.74
2022-11-09T00:51:30.378Z,74.23
2022-11-09T00:51:42.296Z,74.50
2022-11-09T00:51:54.534Z,74.51
2022-11-09T00:52:06.460Z,74.26
2022-11-09T00:52:18.356Z,74.26
2022-11-09T00:52:30.279Z,74.12
2022-11-09T00:52:42.803Z,74.11
2022-11-09T00:52:54.708Z,74.46
2022-11-09T00:53:06.645Z,74.33
2022-11-09T00:53:19.783Z,74.35
2022-11-09T00:53:32.716Z,74.30
2022-11-09T00:53:48.125Z,74.25
2022-11-09T00:54:00.013Z,74.16
2022-11-09T00:54:12.148Z,74.29
2022-11-09T00:54:24.209Z,74.08
2022-11-09T00:54:36.352Z,74.09
2022-11-09T00:54:48.252Z,74.24
2022-11-09T00:55:00.185Z,74.27
2022-11-09T00:55:12.104Z,74.31
2022-11-09T00:55:24.475Z,74.36
2022-11-09T00:55:36.417Z,74.11
2022-11-09T00:56:01.817Z,74.19
2022-11-09T00:56:14.454Z,74.46
2022-11-09T00:56:26.351Z,74.42
2022-11-09T00:56:38.314Z,74.60
2022-11-09T00:56:50.232Z,74.69
2022-11-09T00:57:02.201Z,75.10
2022-11-09T00:57:14.174Z,74.94
2022-11-09T00:57:26.055Z,74.94
2022-11-09T00:57:38.009Z,75.08
2022-11-09T00:57:50.796Z,74.97
2022-11-09T00:58:02.695Z,75.20
2022-11-09T00:58:14.576Z,75.25
2022-11-09T00:58:28.399Z,75.19
2022-11-09T00:58:41.042Z,75.45
2022-11-09T00:58:55.545Z,75.41
2022-11-09T00:59:10.607Z,75.88
2022-11-09T00:59:22.533Z,75.58
2022-11-09T00:59:34.441Z,75.42
2022-11-09T00:59:46.468Z,75.56
2022-11-09T00:59:58.368Z,75.68
2022-11-09T01:00:11.195Z,75.77
2022-11-09T01:00:25.738Z,75.56
2022-11-09T01:00:37.633Z,75.34
2022-11-09T01:00:49.906Z,75.69
2022-11-09T01:01:13.751Z,75.32
2022-11-09T01:01:25.910Z,75.44
2022-11-09T01:01:38.038Z,75.30
2022-11-09T01:01:50.066Z,75.34
2022-11-09T01:02:02.005Z,75.40
2022-11-09T01:02:13.919Z,75.12
2022-11-09T01:02:25.909Z,75.31
2022-11-09T01:02:37.817Z,75.33
2022-11-09T01:02:50.280Z,75.24
2022-11-09T01:03:02.187Z,75.56
2022-11-09T01:03:14.153Z,75.50
2022-11-09T01:03:27.097Z,75.88
2022-11-09T01:03:39.493Z,75.53
2022-11-09T01:03:51.790Z,75.84
2022-11-09T01:04:03.701Z,75.78
2022-11-09T01:04:15.599Z,75.79
2022-11-09T01:04:27.823Z,75.53
2022-11-09T01:04:39.740Z,75.94
2022-11-09T01:04:51.631Z,75.85
2022-11-09T01:05:03.869Z,75.48
2022-11-09T01:05:15.963Z,75.84
2022-11-09T01:05:27.902Z,76.40
2022-11-09T01:05:39.861Z,76.04
2022-11-09T01:05:52.516Z,76.07
2022-11-09T01:06:05.249Z,76.04
2022-11-09T01:06:25.544Z,76.23
2022-11-09T01:06:37.536Z,76.09
2022-11-09T01:06:49.653Z,76.13
2022-11-09T01:07:01.639Z,75.98
2022-11-09T01:07:13.600Z,76.06
2022-11-09T01:07:25.731Z,75.82
2022-11-09T01:07:38.171Z,75.85
2022-11-09T01:07:50.208Z,75.83
2022-11-09T01:08:02.271Z,76.05
2022-11-09T01:08:14.581Z,75.98
2022-11-09T01:08:26.570Z,76.26
2022-11-09T01:08:38.591Z,75.99
2022-11-09T01:08:50.980Z,76.06
2022-11-09T01:09:03.014Z,75.94
2022-11-09T01:09:14.916Z,75.66
2022-11-09T01:09:26.873Z,75.78
2022-11-09T01:09:39.061Z,75.65
2022-11-09T01:09:51.064Z,75.49
2022-11-09T01:10:04.033Z,75.57
2022-11-09T01:10:15.980Z,75.32
2022-11-09T01:10:27.900Z,75.46
2022-11-09T01:10:42.647Z,75.45
2022-11-09T01:10:54.575Z,75.74
2022-11-09T01:11:09.253Z,75.66
2022-11-09T01:11:22.609Z,75.52
2022-11-09T01:11:34.580Z,75.76
2022-11-09T01:11:46.553Z,75.72
2022-11-09T01:11:58.525Z,75.59
2022-11-09T01:12:10.447Z,75.69
2022-11-09T01:12:22.358Z,75.51
2022-11-09T01:12:34.594Z,75.52
2022-11-09T01:12:46.579Z,75.52
2022-11-09T01:12:58.525Z,75.54
2022-11-09T01:13:12.519Z,75.54
2022-11-09T01:13:24.421Z,75.78
2022-11-09T01:13:37.629Z,75.76
2022-11-09T01:13:49.807Z,75.86
2022-11-09T01:14:02.176Z,75.54
2022-11-09T01:14:14.091Z,75.46
2022-11-09T01:14:26.095Z,75.32
2022-11-09T01:14:38.025Z,74.87
2022-11-09T01:14:49.963Z,75.15
2022-11-09T01:15:01.865Z,74.84
2022-11-09T01:15:13.886Z,74.80
2022-11-09T01:15:26.222Z,74.61
2022-11-09T01:15:48.254Z,74.75
2022-11-09T01:16:00.310Z,75.10
2022-11-09T01:16:17.430Z,75.17
2022-11-09T01:16:29.404Z,75.58
2022-11-09T01:16:41.335Z,75.78
2022-11-09T01:16:53.281Z,75.91
2022-11-09T01:17:05.239Z,75.81
2022-11-09T01:17:17.195Z,76.04
2022-11-09T01:17:29.117Z,75.62
2022-11-09T01:17:41.099Z,75.98
2022-11-09T01:17:53.024Z,75.81
2022-11-09T01:18:05.025Z,76.23
2022-11-09T01:18:19.784Z,76.34
2022-11-09T01:18:31.806Z,76.63
2022-11-09T01:18:44.138Z,76.75
2022-11-09T01:18:57.811Z,76.66
2022-11-09T01:19:09.846Z,76.87
2022-11-09T01:19:21.786Z,77.00
2022-11-09T01:19:33.693Z,76.71
2022-11-09T01:19:45.604Z,76.73
2022-11-09T01:19:57.512Z,76.53
2022-11-09T01:20:10.157Z,76.62
2022-11-09T01:20:22.092Z,76.67
2022-11-09T01:20:34.026Z,76.55
2022-11-09T01:20:49.082Z,76.40
2022-11-09T01:21:03.445Z,76.55
2022-11-09T01:21:15.885Z,76.68
2022-11-09T01:21:29.550Z,76.52
2022-11-09T01:21:41.574Z,76.73
2022-11-09T01:21:53.512Z,76.80
2022-11-09T01:22:05.447Z,76.80
2022-11-09T01:22:19.070Z,76.69
2022-11-09T01:22:31.033Z,76.55
2022-11-09T01:22:43.159Z,76.47
2022-11-09T01:22:55.087Z,76.68
2022-11-09T01:23:08.146Z,76.31
2022-11-09T01:23:21.423Z,76.43
2022-11-09T01:23:34.356Z,76.48
2022-11-09T01:23:46.400Z,76.26
2022-11-09T01:23:58.916Z,76.46
2022-11-09T01:24:10.844Z,76.42
2022-11-09T01:24:22.879Z,76.47
2022-11-09T01:24:34.787Z,76.11
2022-11-09T01:24:46.748Z,76.39
2022-11-09T01:24:58.668Z,76.42
2022-11-09T01:25:10.586Z,76.34
2022-11-09T01:25:22.547Z,76.15
2022-11-09T01:25:34.756Z,76.53
2022-11-09T01:25:46.716Z,76.25
2022-11-09T01:26:00.764Z,76.57
2022-11-09T01:26:14.381Z,76.62
2022-11-09T01:26:26.429Z,76.59
2022-11-09T01:26:38.346Z,76.93
2022-11-09T01:26:50.280Z,76.87
2022-11-09T01:27:02.206Z,76.52
2022-11-09T01:27:14.190Z,76.54
2022-11-09T01:27:26.144Z,76.67
2022-11-09T01:27:38.080Z,76.61
2022-11-09T01:27:49.981Z,76.71
2022-11-09T01:28:02.186Z,76.88
2022-11-09T01:28:14.147Z,76.61
2022-11-09T01:28:26.407Z,76.71
2022-11-09T01:28:38.625Z,76.41
2022-11-09T01:28:50.568Z,76.33
2022-11-09T01:29:02.715Z,76.58
2022-11-09T01:29:14.651Z,76.45
2022-11-09T01:29:26.621Z,76.57
2022-11-09T01:29:38.603Z,76.35
2022-11-09T01:29:50.509Z,76.44
2022-11-09T01:30:02.852Z,76.41
2022-11-09T01:30:14.773Z,76.24
2022-11-09T01:30:26.732Z,76.07
2022-11-09T01:30:41.652Z,76.04
2022-11-09T01:30:54.072Z,76.02
2022-11-09T01:31:12.145Z,75.77
2022-11-09T01:31:24.132Z,76.14
2022-11-09T01:31:36.052Z,75.64
2022-11-09T01:31:48.905Z,75.70
2022-11-09T01:32:00.807Z,75.74
2022-11-09T01:32:12.712Z,75.70
2022-11-09T01:32:24.638Z,75.67
2022-11-09T01:32:36.553Z,75.87
2022-11-09T01:32:48.465Z,75.69
2022-11-09T01:33:00.414Z,75.75
2022-11-09T01:33:12.499Z,75.65
2022-11-09T01:33:24.416Z,75.63
2022-11-09T01:33:37.042Z,75.70
2022-11-09T01:33:49.104Z,75.71
2022-11-09T01:34:00.995Z,76.08
2022-11-09T01:34:13.008Z,76.05
2022-11-09T01:34:24.937Z,76.15
2022-11-09T01:34:36.917Z,75.91
2022-11-09T01:34:48.825Z,75.97
2022-11-09T01:35:00.795Z,75.69
2022-11-09T01:35:12.744Z,75.92
2022-11-09T01:35:24.652Z,76.21
2022-11-09T01:35:38.365Z,76.18
2022-11-09T01:35:50.300Z,76.06
2022-11-09T01:36:07.466Z,76.16
2022-11-09T01:36:22.290Z,76.10
2022-11-09T01:36:34.220Z,75.88
2022-11-09T01:36:46.147Z,76.08
2022-11-09T01:36:59.152Z,76.21
2022-11-09T01:37:11.061Z,76.35
2022-11-09T01:37:23.296Z,76.36
2022-11-09T01:37:35.226Z,76.20
2022-11-09T01:37:47.165Z,76.47
2022-11-09T01:37:59.114Z,76.36
2022-11-09T01:38:11.085Z,76.48
2022-11-09T01:38:23.065Z,76.52
2022-11-09T01:38:38.266Z,76.35
2022-11-09T01:38:50.892Z,76.40
2022-11-09T01:39:02.887Z,76.16
2022-11-09T01:39:14.820Z,76.24
2022-11-09T01:39:26.765Z,76.08
2022-11-09T01:39:38.680Z,76.37
2022-11-09T01:39:50.600Z,76.51
2022-11-09T01:40:02.617Z,76.44
2022-11-09T01:40:14.770Z,76.06
2022-11-09T01:40:28.325Z,76.22
2022-11-09T01:40:40.657Z,76.29
2022-11-09T01:40:52.555Z,76.13
2022-11-09T01:41:06.140Z,76.09
2022-11-09T01:41:19.878Z,76.20
2022-11-09T01:41:31.800Z,76.15
2022-11-09T01:41:43.751Z,76.17
2022-11-09T01:41:55.685Z,76.21
2022-11-09T01:42:07.593Z,75.85
2022-11-09T01:42:26.388Z,75.96
2022-11-09T01:42:39.117Z,75.82
2022-11-09T01:42:51.041Z,75.73
2022-11-09T01:43:15.123Z,75.93
2022-11-09T01:43:27.358Z,76.05
2022-11-09T01:43:39.414Z,76.01
2022-11-09T01:44:03.404Z,75.89
2022-11-09T01:44:19.578Z,75.83
2022-11-09T01:44:32.096Z,76.33
2022-11-09T01:44:44.014Z,75.64
2022-11-09T01:45:17.558Z,75.91
2022-11-09T01:45:30.991Z,76.02
2022-11-09T01:45:48.641Z,76.03
2022-11-09T01:46:05.543Z,75.88
2022-11-09T01:46:24.886Z,75.85
2022-11-09T01:46:45.418Z,75.99
2022-11-09T01:47:03.389Z,76.05
2022-11-09T01:47:24.799Z,76.03
2022-11-09T01:47:36.720Z,75.95
2022-11-09T01:47:58.637Z,75.83
2022-11-09T01:48:18.324Z,75.75
2022-11-09T01:48:47.867Z,75.87
2022-11-09T01:49:05.303Z,75.87
2022-11-09T01:49:40.835Z,75.91
2022-11-09T01:49:56.571Z,76.10
2022-11-09T01:50:11.780Z,75.96
2022-11-09T01:50:32.376Z,75.99
2022-11-09T01:51:19.989Z,75.82
2022-11-09T01:51:38.178Z,75.97
2022-11-09T01:51:56.189Z,75.67
2022-11-09T01:52:13.962Z,75.80
2022-11-09T01:52:32.322Z,75.84
2022-11-09T01:52:48.105Z,76.00
2022-11-09T01:53:03.900Z,75.94
2022-11-09T01:53:20.957Z,76.09
2022-11-09T01:53:36.895Z,75.90
2022-11-09T01:53:52.920Z,75.78
2022-11-09T01:54:30.191Z,75.87
2022-11-09T01:54:45.976Z,75.97
2022-11-09T01:55:03.122Z,75.74
2022-11-09T01:55:23.112Z,75.72
2022-11-09T01:55:36.000Z,75.77
2022-11-09T01:55:52.834Z,75.79
2022-11-09T01:56:09.050Z,75.80
2022-11-09T01:56:21.017Z,75.63
2022-11-09T01:56:33.380Z,75.82
2022-11-09T01:56:48.420Z,75.86
2022-11-09T01:57:05.889Z,75.82
2022-11-09T01:57:41.237Z,75.70
2022-11-09T01:58:27.709Z,75.59
2022-11-09T01:59:51.590Z,75.71
2022-11-09T02:00:07.953Z,75.68
2022-11-09T02:00:20.403Z,75.80
2022-11-09T02:00:34.700Z,75.53
2022-11-09T02:00:50.121Z,75.90
2022-11-09T02:01:02.945Z,75.70
2022-11-09T02:01:17.650Z,75.46
2022-11-09T02:01:31.328Z,75.48
2022-11-09T02:01:44.046Z,75.50
2022-11-09T02:01:56.756Z,75.57
2022-11-09T02:02:09.260Z,75.83
2022-11-09T02:02:21.832Z,75.65
2022-11-09T02:02:35.281Z,75.55
2022-11-09T02:03:02.604Z,75.32
2022-11-09T02:03:30.977Z,75.21
2022-11-09T02:03:54.077Z,75.22
2022-11-09T02:04:11.764Z,75.18
2022-11-09T02:04:30.416Z,75.17
2022-11-09T02:04:55.461Z,75.03
2022-11-09T02:05:12.408Z,75.25
2022-11-09T02:05:28.065Z,75.63
2022-11-09T02:05:41.771Z,75.68
2022-11-09T02:05:54.031Z,75.55
2022-11-09T02:06:10.086Z,75.63
2022-11-09T02:06:25.549Z,75.58
2022-11-09T02:06:37.720Z,75.62
2022-11-09T02:06:50.650Z,75.87
2022-11-09T02:07:03.076Z,75.92
2022-11-09T02:07:15.282Z,75.78
2022-11-09T02:07:27.808Z,75.76
2022-11-09T02:07:41.370Z,75.67
2022-11-09T02:07:55.177Z,75.90
2022-11-09T02:08:08.858Z,75.63
2022-11-09T02:08:25.073Z,75.90
2022-11-09T02:08:37.454Z,75.83
2022-11-09T02:08:49.567Z,75.89
2022-11-09T02:09:10.010Z,76.00
2022-11-09T02:09:51.464Z,76.02
2022-11-09T02:10:14.829Z,75.74
2022-11-09T02:10:35.619Z,76.11
2022-11-09T02:11:07.434Z,76.23
2022-11-09T02:11:20.941Z,76.57
2022-11-09T02:11:34.697Z,76.54
2022-11-09T02:11:46.652Z,76.40
2022-11-09T02:11:59.382Z,76.46
2022-11-09T02:12:11.441Z,76.20
2022-11-09T02:12:25.258Z,76.25
2022-11-09T02:12:37.370Z,76.79
2022-11-09T02:12:49.941Z,76.87
2022-11-09T02:13:03.372Z,77.09
2022-11-09T02:13:19.017Z,77.14
2022-11-09T02:13:33.121Z,77.19
2022-11-09T02:13:51.703Z,76.90
2022-11-09T02:14:06.428Z,77.25
2022-11-09T02:14:20.666Z,76.67
2022-11-09T02:14:33.897Z,77.08
2022-11-09T02:14:49.213Z,76.88
2022-11-09T02:15:05.358Z,76.92
2022-11-09T02:15:17.361Z,76.81
2022-11-09T02:15:29.970Z,76.97
2022-11-09T02:15:45.688Z,76.78
2022-11-09T02:15:58.977Z,76.87
2022-11-09T02:16:13.299Z,76.65
2022-11-09T02:16:26.516Z,76.76
2022-11-09T02:16:40.246Z,76.62
2022-11-09T02:16:52.326Z,76.74
2022-11-09T02:17:05.103Z,76.47
2022-11-09T02:17:18.641Z,76.57
2022-11-09T02:17:31.037Z,76.57
2022-11-09T02:17:44.183Z,76.55
2022-11-09T02:17:58.197Z,76.62
2022-11-09T02:18:10.900Z,76.56
2022-11-09T02:18:23.063Z,76.57
2022-11-09T02:18:36.580Z,76.91
2022-11-09T02:18:56.528Z,76.58
2022-11-09T02:19:08.515Z,76.67
2022-11-09T02:19:20.438Z,76.58
2022-11-09T02:19:32.351Z,76.58
2022-11-09T02:19:44.261Z,76.52
2022-11-09T02:19:58.637Z,76.63
2022-11-09T02:20:15.478Z,76.43
2022-11-09T02:20:28.405Z,76.51
2022-11-09T02:20:49.476Z,76.63
2022-11-09T02:21:01.559Z,76.61
2022-11-09T02:21:13.505Z,76.49
2022-11-09T02:21:28.396Z,76.44
2022-11-09T02:21:40.389Z,76.45
2022-11-09T02:21:52.334Z,76.43
2022-11-09T02:22:04.391Z,76.43
2022-11-09T02:22:16.701Z,76.34
2022-11-09T02:22:28.606Z,76.25
2022-11-09T02:22:41.611Z,76.42
2022-11-09T02:22:53.585Z,76.28
2022-11-09T02:23:05.542Z,76.00
2022-11-09T02:23:19.268Z,76.08
2022-11-09T02:23:31.468Z,76.23
2022-11-09T02:23:43.435Z,76.12
2022-11-09T02:23:55.944Z,76.09
2022-11-09T02:24:08.040Z,76.05
2022-11-09T02:24:20.043Z,76.15
2022-11-09T02:24:33.107Z,76.32
2022-11-09T02:24:45.277Z,76.41
2022-11-09T02:24:57.194Z,76.42
2022-11-09T02:25:10.445Z,76.32
2022-11-09T02:25:22.468Z,76.64
2022-11-09T02:25:34.369Z,76.50
2022-11-09T02:25:54.008Z,76.57
2022-11-09T02:26:10.690Z,76.63
2022-11-09T02:26:25.078Z,76.59
2022-11-09T02:26:47.614Z,76.44
2022-11-09T02:26:59.872Z,76.44
2022-11-09T02:27:11.814Z,76.59
2022-11-09T02:27:24.352Z,76.73
2022-11-09T02:27:37.602Z,76.69
2022-11-09T02:27:50.139Z,76.70
2022-11-09T02:28:02.155Z,76.48
2022-11-09T02:28:16.289Z,76.60
2022-11-09T02:28:28.881Z,76.65
2022-11-09T02:28:42.303Z,76.43
2022-11-09T02:28:56.204Z,76.63
2022-11-09T02:29:12.066Z,76.75
2022-11-09T02:29:28.420Z,76.72
2022-11-09T02:29:46.513Z,77.15
2022-11-09T02:30:00.036Z,76.60
2022-11-09T02:30:13.530Z,76.53
2022-11-09T02:30:25.707Z,76.53
2022-11-09T02:30:38.894Z,76.92
2022-11-09T02:30:53.604Z,76.99
2022-11-09T02:31:08.297Z,76.97
2022-11-09T02:31:22.463Z,76.95
2022-11-09T02:31:38.679Z,77.02
2022-11-09T02:32:02.374Z,76.98
2022-11-09T02:32:20.893Z,76.89
2022-11-09T02:32:33.197Z,76.92
2022-11-09T02:32:45.096Z,76.91
2022-11-09T02:32:57.003Z,77.15
2022-11-09T02:33:08.903Z,76.89
2022-11-09T02:33:21.677Z,77.47
2022-11-09T02:34:11.798Z,77.11
2022-11-09T02:34:24.735Z,76.79
2022-11-09T02:34:36.712Z,76.70
2022-11-09T02:34:48.665Z,76.99
2022-11-09T02:35:00.634Z,76.80
2022-11-09T02:35:13.451Z,76.80
2022-11-09T02:35:25.354Z,76.58
2022-11-09T02:35:37.308Z,76.78
2022-11-09T02:35:49.309Z,76.96
2022-11-09T02:36:01.232Z,76.90
2022-11-09T02:36:13.169Z,76.82
2022-11-09T02:36:25.353Z,76.80
2022-11-09T02:36:37.400Z,76.92
2022-11-09T02:36:49.346Z,76.55
2022-11-09T02:37:01.291Z,76.57
2022-11-09T02:37:13.240Z,76.59
2022-11-09T02:37:27.974Z,76.46
2022-11-09T02:37:49.885Z,76.61
2022-11-09T02:38:01.889Z,76.65
2022-11-09T02:38:15.191Z,76.58
2022-11-09T02:38:27.103Z,76.29
2022-11-09T02:38:39.012Z,76.34
2022-11-09T02:38:54.535Z,76.41
2022-11-09T02:39:06.891Z,76.63
2022-11-09T02:39:23.040Z,76.80
2022-11-09T02:39:35.258Z,76.66
2022-11-09T02:39:47.228Z,76.81
2022-11-09T02:40:01.387Z,76.69
2022-11-09T02:40:19.329Z,76.93
2022-11-09T02:40:36.509Z,76.73
2022-11-09T02:40:51.386Z,76.48
2022-11-09T02:41:03.766Z,76.79
2022-11-09T02:41:16.448Z,76.57
2022-11-09T02:41:31.782Z,76.80
2022-11-09T02:41:52.115Z,76.69
2022-11-09T02:42:19.934Z,76.65
2022-11-09T02:42:33.693Z,76.63
2022-11-09T02:42:45.804Z,76.76
2022-11-09T02:42:57.812Z,76.59
2022-11-09T02:43:11.983Z,76.39
2022-11-09T02:43:24.194Z,76.41
2022-11-09T02:43:36.817Z,76.42
2022-11-09T02:43:51.479Z,76.59
2022-11-09T02:44:03.527Z,76.61
2022-11-09T02:44:16.532Z,76.41
2022-11-09T02:44:30.237Z,76.77
2022-11-09T02:44:47.804Z,76.59
2022-11-09T02:45:00.222Z,76.58
2022-11-09T02:45:12.469Z,76.51
2022-11-09T02:45:24.426Z,76.32
2022-11-09T02:45:37.173Z,76.30
2022-11-09T02:45:49.168Z,76.38
2022-11-09T02:46:01.183Z,76.46
2022-11-09T02:46:13.096Z,76.46
2022-11-09T02:46:34.229Z,76.46
2022-11-09T02:46:46.526Z,76.43
2022-11-09T02:46:58.456Z,76.46
2022-11-09T02:47:10.458Z,76.55
2022-11-09T02:47:22.438Z,76.68
2022-11-09T02:47:34.418Z,76.50
2022-11-09T02:47:46.354Z,76.57
2022-11-09T02:47:58.348Z,76.41
2022-11-09T02:48:10.276Z,76.68
2022-11-09T02:48:22.159Z,76.54
2022-11-09T02:48:34.089Z,76.80
2022-11-09T02:48:46.000Z,76.52
2022-11-09T02:48:57.909Z,76.53
2022-11-09T02:49:09.933Z,76.41
2022-11-09T02:49:21.923Z,76.48
2022-11-09T02:49:33.902Z,76.68
2022-11-09T02:49:45.884Z,76.61
2022-11-09T02:49:57.947Z,76.46
2022-11-09T02:50:10.361Z,76.52
2022-11-09T02:50:22.339Z,76.59
2022-11-09T02:50:36.107Z,76.76
2022-11-09T02:50:48.001Z,76.51
2022-11-09T02:50:59.895Z,76.34
2022-11-09T02:51:11.812Z,76.55
2022-11-09T02:51:23.732Z,76.39
2022-11-09T02:51:35.733Z,76.46
2022-11-09T02:51:47.648Z,76.55
2022-11-09T02:51:59.561Z,76.58
2022-11-09T02:52:11.487Z,76.54
2022-11-09T02:52:24.023Z,76.50
2022-11-09T02:52:35.996Z,76.47
2022-11-09T02:52:48.005Z,76.30
2022-11-09T02:52:59.928Z,76.60
2022-11-09T02:53:11.841Z,76.72
2022-11-09T02:53:23.823Z,76.62
2022-11-09T02:53:35.836Z,76.66
2022-11-09T02:53:47.808Z,76.45
2022-11-09T02:53:59.733Z,76.48
2022-11-09T02:54:11.714Z,76.67
2022-11-09T02:54:23.777Z,76.94
2022-11-09T02:54:35.806Z,76.47
2022-11-09T02:54:47.740Z,76.68